sensor_id;sensor_type;location;lat;lon;timestamp;pressure;altitude;pressure_sealevel;temperature
22269;BMP280;11303;50.772;19.670;2024-02-23T00:01:40;96901.34;;;7.08
22269;BMP280;11303;50.772;19.670;2024-02-23T00:03:42;96895.81;;;7.06
22269;BMP280;11303;50.772;19.670;2024-02-23T00:05:43;96900.59;;;7.04
22269;BMP280;11303;50.772;19.670;2024-02-23T00:07:45;96896.13;;;7.01
22269;BMP280;11303;50.772;19.670;2024-02-23T00:09:47;96897.25;;;7.00
22269;BMP280;11303;50.772;19.670;2024-02-23T00:11:48;96902.41;;;7.00
22269;BMP280;11303;50.772;19.670;2024-02-23T00:13:51;96900.91;;;6.99
22269;BMP280;11303;50.772;19.670;2024-02-23T00:15:52;96902.75;;;6.98
22269;BMP280;11303;50.772;19.670;2024-02-23T00:17:54;96896.84;;;6.98
22269;BMP280;11303;50.772;19.670;2024-02-23T00:19:56;96897.59;;;6.98
22269;BMP280;11303;50.772;19.670;2024-02-23T00:21:58;96896.09;;;6.97
22269;BMP280;11303;50.772;19.670;2024-02-23T00:24:01;96891.66;;;6.98
22269;BMP280;11303;50.772;19.670;2024-02-23T00:26:02;96894.59;;;6.96
22269;BMP280;11303;50.772;19.670;2024-02-23T00:28:05;96896.44;;;6.96
22269;BMP280;11303;50.772;19.670;2024-02-23T00:30:07;96881.66;;;6.93
22269;BMP280;11303;50.772;19.670;2024-02-23T00:32:09;96887.22;;;6.91
22269;BMP280;11303;50.772;19.670;2024-02-23T00:34:11;96884.63;;;6.91
22269;BMP280;11303;50.772;19.670;2024-02-23T00:36:14;96884.25;;;6.89
22269;BMP280;11303;50.772;19.670;2024-02-23T00:38:16;96882.38;;;6.86
22269;BMP280;11303;50.772;19.670;2024-02-23T00:40:17;96888.22;;;6.83
22269;BMP280;11303;50.772;19.670;2024-02-23T00:42:19;96886.72;;;6.82
22269;BMP280;11303;50.772;19.670;2024-02-23T00:44:22;96883.06;;;6.83
22269;BMP280;11303;50.772;19.670;2024-02-23T00:46:24;96884.53;;;6.84
22269;BMP280;11303;50.772;19.670;2024-02-23T00:48:26;96872.78;;;6.90
22269;BMP280;11303;50.772;19.670;2024-02-23T00:50:27;96883.53;;;6.96
22269;BMP280;11303;50.772;19.670;2024-02-23T00:52:29;96870.28;;;7.01
22269;BMP280;11303;50.772;19.670;2024-02-23T00:54:30;96869.22;;;7.02
22269;BMP280;11303;50.772;19.670;2024-02-23T00:56:32;96863.31;;;7.05
22269;BMP280;11303;50.772;19.670;2024-02-23T00:58:50;96858.16;;;7.09
22269;BMP280;11303;50.772;19.670;2024-02-23T01:00:52;96864.84;;;7.10
22269;BMP280;11303;50.772;19.670;2024-02-23T01:02:54;96859.31;;;7.11
22269;BMP280;11303;50.772;19.670;2024-02-23T01:04:55;96856.72;;;7.11
22269;BMP280;11303;50.772;19.670;2024-02-23T01:06:58;96858.59;;;7.14
22269;BMP280;11303;50.772;19.670;2024-02-23T01:09:01;96867.84;;;7.19
22269;BMP280;11303;50.772;19.670;2024-02-23T01:11:03;96855.34;;;7.25
22269;BMP280;11303;50.772;19.670;2024-02-23T01:13:05;96860.53;;;7.32
22269;BMP280;11303;50.772;19.670;2024-02-23T01:15:06;96853.91;;;7.34
22269;BMP280;11303;50.772;19.670;2024-02-23T01:17:08;96855.44;;;7.39
22269;BMP280;11303;50.772;19.670;2024-02-23T01:19:10;96854.69;;;7.38
22269;BMP280;11303;50.772;19.670;2024-02-23T01:21:11;96863.56;;;7.41
22269;BMP280;11303;50.772;19.670;2024-02-23T01:23:13;96865.03;;;7.42
22269;BMP280;11303;50.772;19.670;2024-02-23T01:25:15;96856.19;;;7.43
22269;BMP280;11303;50.772;19.670;2024-02-23T01:27:17;96864.34;;;7.49
22269;BMP280;11303;50.772;19.670;2024-02-23T01:29:20;96854.00;;;7.49
22269;BMP280;11303;50.772;19.670;2024-02-23T01:31:21;96855.13;;;7.51
22269;BMP280;11303;50.772;19.670;2024-02-23T01:33:23;96862.88;;;7.55
22269;BMP280;11303;50.772;19.670;2024-02-23T01:35:25;96869.56;;;7.59
22269;BMP280;11303;50.772;19.670;2024-02-23T01:37:27;96860.72;;;7.57
22269;BMP280;11303;50.772;19.670;2024-02-23T01:39:28;96862.19;;;7.58
22269;BMP280;11303;50.772;19.670;2024-02-23T01:41:30;96856.28;;;7.57
22269;BMP280;11303;50.772;19.670;2024-02-23T01:43:31;96863.31;;;7.61
22269;BMP280;11303;50.772;19.670;2024-02-23T01:45:33;96861.47;;;7.61
22269;BMP280;11303;50.772;19.670;2024-02-23T01:47:35;96859.59;;;7.58
22269;BMP280;11303;50.772;19.670;2024-02-23T01:49:37;96862.94;;;7.58
22269;BMP280;11303;50.772;19.670;2024-02-23T01:51:38;96859.94;;;7.56
22269;BMP280;11303;50.772;19.670;2024-02-23T01:53:40;96864.38;;;7.56
22269;BMP280;11303;50.772;19.670;2024-02-23T01:55:43;96864.03;;;7.57
22269;BMP280;11303;50.772;19.670;2024-02-23T01:57:47;96863.28;;;7.57
22269;BMP280;11303;50.772;19.670;2024-02-23T01:59:51;96855.53;;;7.57
22269;BMP280;11303;50.772;19.670;2024-02-23T02:01:53;96861.47;;;7.61
22269;BMP280;11303;50.772;19.670;2024-02-23T02:03:54;96864.41;;;7.59
22269;BMP280;11303;50.772;19.670;2024-02-23T02:05:58;96863.66;;;7.59
22269;BMP280;11303;50.772;19.670;2024-02-23T02:08:02;96865.16;;;7.60
22269;BMP280;11303;50.772;19.670;2024-02-23T02:10:06;96869.22;;;7.61
22269;BMP280;11303;50.772;19.670;2024-02-23T02:12:09;96870.72;;;7.62
22269;BMP280;11303;50.772;19.670;2024-02-23T02:14:11;96867.38;;;7.65
22269;BMP280;11303;50.772;19.670;2024-02-23T02:16:12;96863.69;;;7.66
22269;BMP280;11303;50.772;19.670;2024-02-23T02:18:14;96868.88;;;7.70
22269;BMP280;11303;50.772;19.670;2024-02-23T02:20:17;96863.72;;;7.70
22269;BMP280;11303;50.772;19.670;2024-02-23T02:22:20;96858.19;;;7.71
22269;BMP280;11303;50.772;19.670;2024-02-23T02:24:21;96860.78;;;7.75
22269;BMP280;11303;50.772;19.670;2024-02-23T02:26:23;96859.69;;;7.79
22269;BMP280;11303;50.772;19.670;2024-02-23T02:28:25;96845.69;;;7.84
22269;BMP280;11303;50.772;19.670;2024-02-23T02:30:27;96852.00;;;7.87
22269;BMP280;11303;50.772;19.670;2024-02-23T02:32:29;96847.53;;;7.87
22269;BMP280;11303;50.772;19.670;2024-02-23T02:34:36;96846.09;;;7.86
22269;BMP280;11303;50.772;19.670;2024-02-23T02:36:37;96846.81;;;7.87
22269;BMP280;11303;50.772;19.670;2024-02-23T02:38:39;96854.19;;;7.85
22269;BMP280;11303;50.772;19.670;2024-02-23T02:40:41;96849.03;;;7.85
22269;BMP280;11303;50.772;19.670;2024-02-23T02:42:42;96856.78;;;7.85
22269;BMP280;11303;50.772;19.670;2024-02-23T02:44:44;96866.72;;;7.83
22269;BMP280;11303;50.772;19.670;2024-02-23T02:46:45;96864.50;;;7.81
22269;BMP280;11303;50.772;19.670;2024-02-23T02:48:47;96869.28;;;7.79
22269;BMP280;11303;50.772;19.670;2024-02-23T02:50:50;96872.25;;;7.77
22269;BMP280;11303;50.772;19.670;2024-02-23T02:52:54;96871.91;;;7.75
22269;BMP280;11303;50.772;19.670;2024-02-23T02:54:56;96870.03;;;7.76
22269;BMP280;11303;50.772;19.670;2024-02-23T02:56:58;96867.47;;;7.76
22269;BMP280;11303;50.772;19.670;2024-02-23T02:58:59;96864.47;;;7.77
22269;BMP280;11303;50.772;19.670;2024-02-23T03:01:01;96873.03;;;7.82
22269;BMP280;11303;50.772;19.670;2024-02-23T03:03:02;96866.78;;;7.86
22269;BMP280;11303;50.772;19.670;2024-02-23T03:05:04;96879.34;;;7.88
22269;BMP280;11303;50.772;19.670;2024-02-23T03:07:06;96881.53;;;7.89
22269;BMP280;11303;50.772;19.670;2024-02-23T03:09:08;96875.63;;;7.92
22269;BMP280;11303;50.772;19.670;2024-02-23T03:11:09;96867.50;;;7.94
22269;BMP280;11303;50.772;19.670;2024-02-23T03:13:11;96880.06;;;7.95
22269;BMP280;11303;50.772;19.670;2024-02-23T03:15:13;96876.75;;;7.95
22269;BMP280;11303;50.772;19.670;2024-02-23T03:17:15;96888.97;;;7.94
22269;BMP280;11303;50.772;19.670;2024-02-23T03:19:16;96886.00;;;7.96
22269;BMP280;11303;50.772;19.670;2024-02-23T03:21:21;96887.13;;;7.98
22269;BMP280;11303;50.772;19.670;2024-02-23T03:23:22;96888.59;;;8.00
22269;BMP280;11303;50.772;19.670;2024-02-23T03:25:24;96886.00;;;7.96
22269;BMP280;11303;50.772;19.670;2024-02-23T03:27:28;96893.00;;;7.95
22269;BMP280;11303;50.772;19.670;2024-02-23T03:29:33;96893.00;;;7.92
22269;BMP280;11303;50.772;19.670;2024-02-23T03:31:34;96896.69;;;7.91
22269;BMP280;11303;50.772;19.670;2024-02-23T03:33:36;96895.97;;;7.94
22269;BMP280;11303;50.772;19.670;2024-02-23T03:35:38;96900.75;;;7.92
22269;BMP280;11303;50.772;19.670;2024-02-23T03:37:40;96892.63;;;7.90
22269;BMP280;11303;50.772;19.670;2024-02-23T03:39:41;96900.75;;;7.88
22269;BMP280;11303;50.772;19.670;2024-02-23T03:41:43;96902.97;;;7.90
22269;BMP280;11303;50.772;19.670;2024-02-23T03:43:44;96902.97;;;7.93
22269;BMP280;11303;50.772;19.670;2024-02-23T03:45:46;96910.75;;;7.97
22269;BMP280;11303;50.772;19.670;2024-02-23T03:47:48;96910.03;;;7.96
22269;BMP280;11303;50.772;19.670;2024-02-23T03:49:50;96912.97;;;7.95
22269;BMP280;11303;50.772;19.670;2024-02-23T03:51:52;96906.72;;;7.96
22269;BMP280;11303;50.772;19.670;2024-02-23T03:53:53;96908.91;;;8.01
22269;BMP280;11303;50.772;19.670;2024-02-23T03:55:56;96917.41;;;8.02
22269;BMP280;11303;50.772;19.670;2024-02-23T03:57:58;96918.91;;;7.99
22269;BMP280;11303;50.772;19.670;2024-02-23T04:00:00;96912.25;;;7.94
22269;BMP280;11303;50.772;19.670;2024-02-23T04:02:02;96921.06;;;7.90
22269;BMP280;11303;50.772;19.670;2024-02-23T04:04:04;96921.44;;;7.85
22269;BMP280;11303;50.772;19.670;2024-02-23T04:06:06;96926.97;;;7.83
22269;BMP280;11303;50.772;19.670;2024-02-23T04:08:09;96922.50;;;7.76
22269;BMP280;11303;50.772;19.670;2024-02-23T04:10:11;96925.41;;;7.71
22269;BMP280;11303;50.772;19.670;2024-02-23T04:12:21;96932.41;;;7.67
22269;BMP280;11303;50.772;19.670;2024-02-23T04:14:23;96927.22;;;7.64
22269;BMP280;11303;50.772;19.670;2024-02-23T04:16:24;96932.41;;;7.64
22269;BMP280;11303;50.772;19.670;2024-02-23T04:18:26;96931.69;;;7.70
22269;BMP280;11303;50.772;19.670;2024-02-23T04:20:28;96932.03;;;7.69
22269;BMP280;11303;50.772;19.670;2024-02-23T04:22:29;96930.16;;;7.66
22269;BMP280;11303;50.772;19.670;2024-02-23T04:24:31;96941.28;;;7.66
22269;BMP280;11303;50.772;19.670;2024-02-23T04:26:32;96944.97;;;7.69
22269;BMP280;11303;50.772;19.670;2024-02-23T04:28:34;96947.19;;;7.70
22269;BMP280;11303;50.772;19.670;2024-02-23T04:30:36;96948.69;;;7.71
22269;BMP280;11303;50.772;19.670;2024-02-23T04:32:38;96950.56;;;7.74
22269;BMP280;11303;50.772;19.670;2024-02-23T04:34:40;96948.72;;;7.75
22269;BMP280;11303;50.772;19.670;2024-02-23T04:36:42;96957.25;;;7.75
22269;BMP280;11303;50.772;19.670;2024-02-23T04:38:44;96947.97;;;7.74
22269;BMP280;11303;50.772;19.670;2024-02-23T04:40:46;96943.56;;;7.78
22269;BMP280;11303;50.772;19.670;2024-02-23T04:42:47;96953.56;;;7.80
22269;BMP280;11303;50.772;19.670;2024-02-23T04:44:49;96950.94;;;7.76
22269;BMP280;11303;50.772;19.670;2024-02-23T04:46:50;96960.53;;;7.72
22269;BMP280;11303;50.772;19.670;2024-02-23T04:48:52;96964.56;;;7.70
22269;BMP280;11303;50.772;19.670;2024-02-23T04:50:53;96962.28;;;7.61
22269;BMP280;11303;50.772;19.670;2024-02-23T04:52:55;96949.69;;;7.56
22269;BMP280;11303;50.772;19.670;2024-02-23T04:54:57;96948.19;;;7.55
22269;BMP280;11303;50.772;19.670;2024-02-23T04:56:58;96961.88;;;7.55
22269;BMP280;11303;50.772;19.670;2024-02-23T04:59:00;96960.03;;;7.56
22269;BMP280;11303;50.772;19.670;2024-02-23T05:01:02;96966.69;;;7.53
22269;BMP280;11303;50.772;19.670;2024-02-23T05:03:06;96969.94;;;7.47
22269;BMP280;11303;50.772;19.670;2024-02-23T05:05:11;96961.41;;;7.43
22269;BMP280;11303;50.772;19.670;2024-02-23T05:07:13;96965.84;;;7.42
22269;BMP280;11303;50.772;19.670;2024-02-23T05:09:15;96968.81;;;7.40
22269;BMP280;11303;50.772;19.670;2024-02-23T05:11:17;96963.19;;;7.35
22269;BMP280;11303;50.772;19.670;2024-02-23T05:13:18;96966.91;;;7.34
22269;BMP280;11303;50.772;19.670;2024-02-23T05:15:20;96968.34;;;7.31
22269;BMP280;11303;50.772;19.670;2024-02-23T05:17:22;96967.97;;;7.33
22269;BMP280;11303;50.772;19.670;2024-02-23T05:19:24;96968.34;;;7.31
22269;BMP280;11303;50.772;19.670;2024-02-23T05:21:26;96965.75;;;7.31
22269;BMP280;11303;50.772;19.670;2024-02-23T05:23:27;96986.81;;;7.33
22269;BMP280;11303;50.772;19.670;2024-02-23T05:25:29;96966.84;;;7.30
22269;BMP280;11303;50.772;19.670;2024-02-23T05:27:31;96979.75;;;7.30
22269;BMP280;11303;50.772;19.670;2024-02-23T05:29:33;96975.75;;;7.29
22269;BMP280;11303;50.772;19.670;2024-02-23T05:31:46;96982.00;;;7.28
22269;BMP280;11303;50.772;19.670;2024-02-23T05:33:48;96979.03;;;7.26
22269;BMP280;11303;50.772;19.670;2024-02-23T05:35:50;96991.53;;;7.24
22269;BMP280;11303;50.772;19.670;2024-02-23T05:37:52;96994.47;;;7.22
22269;BMP280;11303;50.772;19.670;2024-02-23T05:39:53;96998.53;;;7.20
22269;BMP280;11303;50.772;19.670;2024-02-23T05:41:55;96994.09;;;7.20
22269;BMP280;11303;50.772;19.670;2024-02-23T05:43:57;97009.25;;;7.22
22269;BMP280;11303;50.772;19.670;2024-02-23T05:45:58;97005.50;;;7.19
22269;BMP280;11303;50.772;19.670;2024-02-23T05:48:00;97001.47;;;7.18
22269;BMP280;11303;50.772;19.670;2024-02-23T05:50:03;97005.16;;;7.17
22269;BMP280;11303;50.772;19.670;2024-02-23T05:52:05;97007.72;;;7.14
22269;BMP280;11303;50.772;19.670;2024-02-23T05:54:06;97008.06;;;7.12
22269;BMP280;11303;50.772;19.670;2024-02-23T05:56:08;97006.94;;;7.13
22269;BMP280;11303;50.772;19.670;2024-02-23T05:58:09;97006.94;;;7.13
22269;BMP280;11303;50.772;19.670;2024-02-23T06:00:11;97026.13;;;7.12
22269;BMP280;11303;50.772;19.670;2024-02-23T06:02:16;97014.66;;;7.10
22269;BMP280;11303;50.772;19.670;2024-02-23T06:04:18;97021.25;;;7.07
22269;BMP280;11303;50.772;19.670;2024-02-23T06:06:20;97024.19;;;7.06
22269;BMP280;11303;50.772;19.670;2024-02-23T06:08:21;97036.03;;;7.07
22269;BMP280;11303;50.772;19.670;2024-02-23T06:10:23;97033.09;;;7.05
22269;BMP280;11303;50.772;19.670;2024-02-23T06:12:24;97046.00;;;7.05
22269;BMP280;11303;50.772;19.670;2024-02-23T06:14:26;97059.28;;;7.03
22269;BMP280;11303;50.772;19.670;2024-02-23T06:16:28;97048.94;;;7.03
22269;BMP280;11303;50.772;19.670;2024-02-23T06:18:29;97058.50;;;7.02
22269;BMP280;11303;50.772;19.670;2024-02-23T06:20:31;97058.84;;;7.01
22269;BMP280;11303;50.772;19.670;2024-02-23T06:22:33;97058.84;;;7.01
22269;BMP280;11303;50.772;19.670;2024-02-23T06:24:35;97066.22;;;6.99
22269;BMP280;11303;50.772;19.670;2024-02-23T06:26:37;97069.16;;;6.97
22269;BMP280;11303;50.772;19.670;2024-02-23T06:28:39;97077.59;;;6.94
22269;BMP280;11303;50.772;19.670;2024-02-23T06:30:43;97080.91;;;6.95
22269;BMP280;11303;50.772;19.670;2024-02-23T06:32:45;97080.19;;;6.94
22269;BMP280;11303;50.772;19.670;2024-02-23T06:34:47;97089.44;;;6.95
22269;BMP280;11303;50.772;19.670;2024-02-23T06:36:49;97093.81;;;6.95
22269;BMP280;11303;50.772;19.670;2024-02-23T06:38:50;97095.31;;;6.96
22269;BMP280;11303;50.772;19.670;2024-02-23T06:40:52;97095.31;;;6.96
22269;BMP280;11303;50.772;19.670;2024-02-23T06:42:54;97093.91;;;6.98
22269;BMP280;11303;50.772;19.670;2024-02-23T06:44:55;97096.88;;;7.00
22269;BMP280;11303;50.772;19.670;2024-02-23T06:46:58;97098.72;;;7.00
22269;BMP280;11303;50.772;19.670;2024-02-23T06:48:59;97095.78;;;7.01
22269;BMP280;11303;50.772;19.670;2024-02-23T06:51:01;97095.78;;;7.01
22269;BMP280;11303;50.772;19.670;2024-02-23T06:53:03;97095.00;;;7.01
22269;BMP280;11303;50.772;19.670;2024-02-23T06:55:05;97100.59;;;7.03
22269;BMP280;11303;50.772;19.670;2024-02-23T06:57:08;97108.69;;;7.01
22269;BMP280;11303;50.772;19.670;2024-02-23T06:59:09;97108.34;;;7.03
22269;BMP280;11303;50.772;19.670;2024-02-23T07:01:11;97109.44;;;7.02
22269;BMP280;11303;50.772;19.670;2024-02-23T07:03:14;97107.25;;;7.04
22269;BMP280;11303;50.772;19.670;2024-02-23T07:05:16;97117.91;;;7.02
22269;BMP280;11303;50.772;19.670;2024-02-23T07:07:17;97117.19;;;7.02
22269;BMP280;11303;50.772;19.670;2024-02-23T07:09:19;97121.25;;;7.03
22269;BMP280;11303;50.772;19.670;2024-02-23T07:11:20;97123.84;;;7.03
22269;BMP280;11303;50.772;19.670;2024-02-23T07:13:22;97123.50;;;7.05
22269;BMP280;11303;50.772;19.670;2024-02-23T07:15:23;97127.91;;;7.04
22269;BMP280;11303;50.772;19.670;2024-02-23T07:17:26;97126.78;;;7.05
22269;BMP280;11303;50.772;19.670;2024-02-23T07:19:28;97128.28;;;7.06
22269;BMP280;11303;50.772;19.670;2024-02-23T07:21:29;97129.03;;;7.07
22269;BMP280;11303;50.772;19.670;2024-02-23T07:23:31;97124.25;;;7.09
22269;BMP280;11303;50.772;19.670;2024-02-23T07:25:33;97130.91;;;7.10
22269;BMP280;11303;50.772;19.670;2024-02-23T07:27:34;97135.00;;;7.11
22269;BMP280;11303;50.772;19.670;2024-02-23T07:29:36;97140.91;;;7.11
22269;BMP280;11303;50.772;19.670;2024-02-23T07:31:38;97144.22;;;7.12
22269;BMP280;11303;50.772;19.670;2024-02-23T07:33:40;97136.47;;;7.12
22269;BMP280;11303;50.772;19.670;2024-02-23T07:35:42;97146.47;;;7.13
22269;BMP280;11303;50.772;19.670;2024-02-23T07:37:44;97143.53;;;7.15
22269;BMP280;11303;50.772;19.670;2024-02-23T07:39:45;97153.91;;;7.18
22269;BMP280;11303;50.772;19.670;2024-02-23T07:41:47;97157.97;;;7.19
22269;BMP280;11303;50.772;19.670;2024-02-23T07:43:49;97161.69;;;7.22
22269;BMP280;11303;50.772;19.670;2024-02-23T07:45:50;97153.94;;;7.22
22269;BMP280;11303;50.772;19.670;2024-02-23T07:47:52;97155.13;;;7.28
22269;BMP280;11303;50.772;19.670;2024-02-23T07:49:54;97157.00;;;7.31
22269;BMP280;11303;50.772;19.670;2024-02-23T07:51:55;97154.06;;;7.33
22269;BMP280;11303;50.772;19.670;2024-02-23T07:53:57;97153.75;;;7.38
22269;BMP280;11303;50.772;19.670;2024-02-23T07:55:59;97163.00;;;7.43
22269;BMP280;11303;50.772;19.670;2024-02-23T07:58:04;97162.66;;;7.44
22269;BMP280;11303;50.772;19.670;2024-02-23T08:00:06;97161.22;;;7.47
22269;BMP280;11303;50.772;19.670;2024-02-23T08:02:10;97169.38;;;7.49
22269;BMP280;11303;50.772;19.670;2024-02-23T08:04:12;97170.88;;;7.50
22269;BMP280;11303;50.772;19.670;2024-02-23T08:06:15;97169.44;;;7.56
22269;BMP280;11303;50.772;19.670;2024-02-23T08:08:16;97170.94;;;7.57
22269;BMP280;11303;50.772;19.670;2024-02-23T08:10:18;97175.41;;;7.60
22269;BMP280;11303;50.772;19.670;2024-02-23T08:12:19;97168.78;;;7.63
22269;BMP280;11303;50.772;19.670;2024-02-23T08:14:21;97176.56;;;7.66
22269;BMP280;11303;50.772;19.670;2024-02-23T08:16:23;97159.25;;;7.70
22269;BMP280;11303;50.772;19.670;2024-02-23T08:18:24;97174.75;;;7.70
22269;BMP280;11303;50.772;19.670;2024-02-23T08:20:26;97172.63;;;7.76
22269;BMP280;11303;50.772;19.670;2024-02-23T08:22:28;97167.41;;;7.72
22269;BMP280;11303;50.772;19.670;2024-02-23T08:24:29;97183.69;;;7.76
22269;BMP280;11303;50.772;19.670;2024-02-23T08:26:31;97161.94;;;7.81
22269;BMP280;11303;50.772;19.670;2024-02-23T08:28:33;97166.03;;;7.86
22269;BMP280;11303;50.772;19.670;2024-02-23T08:30:35;97170.47;;;7.89
22269;BMP280;11303;50.772;19.670;2024-02-23T08:32:36;97174.59;;;7.93
22269;BMP280;11303;50.772;19.670;2024-02-23T08:34:39;97180.13;;;7.92
22269;BMP280;11303;50.772;19.670;2024-02-23T08:36:40;97182.69;;;7.88
22269;BMP280;11303;50.772;19.670;2024-02-23T08:38:42;97178.63;;;7.87
22269;BMP280;11303;50.772;19.670;2024-02-23T08:40:44;97176.72;;;7.81
22269;BMP280;11303;50.772;19.670;2024-02-23T08:42:46;97174.09;;;7.77
22269;BMP280;11303;50.772;19.670;2024-02-23T08:44:48;97178.91;;;7.78
22269;BMP280;11303;50.772;19.670;2024-02-23T08:46:50;97166.72;;;7.79
22269;BMP280;11303;50.772;19.670;2024-02-23T08:48:51;97171.50;;;7.77
22269;BMP280;11303;50.772;19.670;2024-02-23T08:50:53;97167.44;;;7.79
22269;BMP280;11303;50.772;19.670;2024-02-23T08:52:56;97168.25;;;7.84
22269;BMP280;11303;50.772;19.670;2024-02-23T08:54:57;97181.22;;;7.87
22269;BMP280;11303;50.772;19.670;2024-02-23T08:56:59;97180.84;;;7.89
22269;BMP280;11303;50.772;19.670;2024-02-23T08:59:02;97181.63;;;7.93
22269;BMP280;11303;50.772;19.670;2024-02-23T09:01:03;97188.34;;;7.97
22269;BMP280;11303;50.772;19.670;2024-02-23T09:03:06;97194.59;;;8.00
22269;BMP280;11303;50.772;19.670;2024-02-23T09:05:08;97190.53;;;7.99
22269;BMP280;11303;50.772;19.670;2024-02-23T09:07:10;97197.19;;;8.00
22269;BMP280;11303;50.772;19.670;2024-02-23T09:09:12;97196.13;;;8.05
22269;BMP280;11303;50.772;19.670;2024-02-23T09:11:14;97195.78;;;8.06
22269;BMP280;11303;50.772;19.670;2024-02-23T09:13:17;97193.97;;;8.10
22269;BMP280;11303;50.772;19.670;2024-02-23T09:15:19;97198.06;;;8.15
22269;BMP280;11303;50.772;19.670;2024-02-23T09:17:21;97205.44;;;8.13
22269;BMP280;11303;50.772;19.670;2024-02-23T09:19:23;97201.81;;;8.18
22269;BMP280;11303;50.772;19.670;2024-02-23T09:21:24;97199.22;;;8.18
22269;BMP280;11303;50.772;19.670;2024-02-23T09:23:26;97196.28;;;8.19
22269;BMP280;11303;50.772;19.670;2024-02-23T09:25:28;97204.78;;;8.20
22269;BMP280;11303;50.772;19.670;2024-02-23T09:27:29;97199.97;;;8.18
22269;BMP280;11303;50.772;19.670;2024-02-23T09:29:31;97205.47;;;8.16
22269;BMP280;11303;50.772;19.670;2024-02-23T09:31:33;97211.41;;;8.17
22269;BMP280;11303;50.772;19.670;2024-02-23T09:33:35;97216.53;;;8.13
22269;BMP280;11303;50.772;19.670;2024-02-23T09:35:37;97215.03;;;8.12
22269;BMP280;11303;50.772;19.670;2024-02-23T09:37:38;97216.53;;;8.13
22269;BMP280;11303;50.772;19.670;2024-02-23T09:39:40;97220.22;;;8.12
22269;BMP280;11303;50.772;19.670;2024-02-23T09:41:42;97217.97;;;8.11
22269;BMP280;11303;50.772;19.670;2024-02-23T09:43:44;97218.78;;;8.15
22269;BMP280;11303;50.772;19.670;2024-02-23T09:45:46;97217.97;;;8.11
22269;BMP280;11303;50.772;19.670;2024-02-23T09:47:48;97222.44;;;8.14
22269;BMP280;11303;50.772;19.670;2024-02-23T09:49:51;97224.66;;;8.12
22269;BMP280;11303;50.772;19.670;2024-02-23T09:51:54;97228.41;;;8.14
22269;BMP280;11303;50.772;19.670;2024-02-23T09:53:56;97246.19;;;8.20
22269;BMP280;11303;50.772;19.670;2024-02-23T09:55:59;97259.91;;;8.24
22269;BMP280;11303;50.772;19.670;2024-02-23T09:58:02;97259.13;;;8.23
22269;BMP280;11303;50.772;19.670;2024-02-23T10:00:05;97259.13;;;8.23
22269;BMP280;11303;50.772;19.670;2024-02-23T10:02:09;97262.50;;;8.27
22269;BMP280;11303;50.772;19.670;2024-02-23T10:04:12;97265.53;;;8.33
22269;BMP280;11303;50.772;19.670;2024-02-23T10:06:13;97257.41;;;8.34
22269;BMP280;11303;50.772;19.670;2024-02-23T10:08:15;97257.44;;;8.38
22269;BMP280;11303;50.772;19.670;2024-02-23T10:10:24;97259.31;;;8.45
22269;BMP280;11303;50.772;19.670;2024-02-23T10:12:28;97260.81;;;8.42
22269;BMP280;11303;50.772;19.670;2024-02-23T10:14:29;97263.03;;;8.47
22269;BMP280;11303;50.772;19.670;2024-02-23T10:16:31;97271.59;;;8.51
22269;BMP280;11303;50.772;19.670;2024-02-23T10:18:32;97272.34;;;8.52
22269;BMP280;11303;50.772;19.670;2024-02-23T10:20:34;97275.66;;;8.52
22269;BMP280;11303;50.772;19.670;2024-02-23T10:22:36;97283.47;;;8.56
22269;BMP280;11303;50.772;19.670;2024-02-23T10:24:38;97280.19;;;8.63
22269;BMP280;11303;50.772;19.670;2024-02-23T10:26:40;97295.00;;;8.66
22269;BMP280;11303;50.772;19.670;2024-02-23T10:28:41;97289.50;;;8.71
22269;BMP280;11303;50.772;19.670;2024-02-23T10:30:43;97291.34;;;8.74
22269;BMP280;11303;50.772;19.670;2024-02-23T10:32:45;97302.88;;;8.80
22269;BMP280;11303;50.772;19.670;2024-02-23T10:34:48;97296.66;;;8.88
22269;BMP280;11303;50.772;19.670;2024-02-23T10:36:52;97306.66;;;8.93
22269;BMP280;11303;50.772;19.670;2024-02-23T10:38:56;97304.44;;;8.96
22269;BMP280;11303;50.772;19.670;2024-02-23T10:41:05;97298.22;;;9.00
22269;BMP280;11303;50.772;19.670;2024-02-23T10:43:11;97302.28;;;9.01
22269;BMP280;11303;50.772;19.670;2024-02-23T10:45:21;97298.63;;;9.09
22269;BMP280;11303;50.772;19.670;2024-02-23T10:47:23;97314.59;;;9.15
22269;BMP280;11303;50.772;19.670;2024-02-23T10:49:25;97317.97;;;9.19
22269;BMP280;11303;50.772;19.670;2024-02-23T10:51:28;97314.97;;;9.17
22269;BMP280;11303;50.772;19.670;2024-02-23T10:53:31;97309.81;;;9.21
22269;BMP280;11303;50.772;19.670;2024-02-23T10:55:33;97303.16;;;9.27
22269;BMP280;11303;50.772;19.670;2024-02-23T10:57:35;97305.75;;;9.27
22269;BMP280;11303;50.772;19.670;2024-02-23T10:59:38;97300.97;;;9.32
22269;BMP280;11303;50.772;19.670;2024-02-23T11:01:40;97296.56;;;9.44
22269;BMP280;11303;50.772;19.670;2024-02-23T11:03:43;97310.28;;;9.51
22269;BMP280;11303;50.772;19.670;2024-02-23T11:05:48;97308.53;;;9.66
22269;BMP280;11303;50.772;19.670;2024-02-23T11:07:50;97320.44;;;9.82
22269;BMP280;11303;50.772;19.670;2024-02-23T11:09:53;97312.66;;;9.82
22269;BMP280;11303;50.772;19.670;2024-02-23T11:11:56;97310.81;;;9.86
22269;BMP280;11303;50.772;19.670;2024-02-23T11:14:02;97317.88;;;9.96
22269;BMP280;11303;50.772;19.670;2024-02-23T11:16:06;97313.06;;;9.95
22269;BMP280;11303;50.772;19.670;2024-02-23T11:18:27;97314.91;;;10.05
22269;BMP280;11303;50.772;19.670;2024-02-23T11:20:36;97299.72;;;10.07
22269;BMP280;11303;50.772;19.670;2024-02-23T11:22:38;97310.84;;;10.04
22269;BMP280;11303;50.772;19.670;2024-02-23T11:24:44;97316.06;;;10.11
22269;BMP280;11303;50.772;19.670;2024-02-23T11:26:49;97316.78;;;10.08
22269;BMP280;11303;50.772;19.670;2024-02-23T11:28:52;97327.22;;;10.22
22269;BMP280;11303;50.772;19.670;2024-02-23T11:30:55;97339.00;;;10.05
22269;BMP280;11303;50.772;19.670;2024-02-23T11:32:59;97331.63;;;10.07
22269;BMP280;11303;50.772;19.670;2024-02-23T11:35:01;97330.88;;;10.03
22269;BMP280;11303;50.772;19.670;2024-02-23T11:37:10;97338.25;;;9.87
22269;BMP280;11303;50.772;19.670;2024-02-23T11:39:13;97343.03;;;9.78
22269;BMP280;11303;50.772;19.670;2024-02-23T11:41:15;97339.66;;;9.66
22269;BMP280;11303;50.772;19.670;2024-02-23T11:43:16;97339.94;;;9.47
22269;BMP280;11303;50.772;19.670;2024-02-23T11:45:18;97342.47;;;9.36